Acadia Natl Park, Maine
Current Conditions -  °F | °C
As of 9:35 PM on Friday 28 Nov 2014 (Local Time) from KBHB Reporting Station
Few Clouds Few Clouds  
Wind Chill: 15°   Ceiling: Unl
Heat Index: 21°   Visibility: 10mi
Dew Point: 19°   Wind: 5mph
Humidity: 93%   Direction: 310°NW
Pressure: 30.1"   Gusts: NA
Location:  44.3°N, 68.25°W
Report Text: KBHB 290235Z AUTO 31004KT 10SM FEW034 M06/M07 A3010 RMK AO1
Loading
Personal Weather Stations






























Interactive Weather Map New forecast layout! Learn more

10-Day Weather Forecast

Advertisements
Track Severe Weather on mobile